Cutting it close ?

Discuss topics relating to airlines.

Moderators: ahramin, sky's the limit, sepia, Sulako, North Shore

Post Reply
Message
Author
URC
Rank 4
Rank 4
Posts: 209
Joined: Mon Aug 16, 2010 1:56 pm

Cutting it close ?

#1 Post by URC » Sun Sep 10, 2017 10:32 pm

http://flightaware.com/live/flight/SWG1 ... /MUVR/CYUL

TAF MUVR 091100Z 0912/1012 01020KT 9000 SCT020
TEMPO 0912/0920 36025G40KT 3000 TSRA SCT015CB BKN020
TEMPO 0921/1006 33050G60KT 0500 TSRA SCT010CB BKN015
TEMPO 1007/1012 28045G55KT 1000 TSRA SCT012CB BKN015=

SA 09/09/2017 15:00-> METAR MUVR NIL= (wx reporting stopped due Hurricane)
SA 09/09/2017 13:52-> METAR MUVR 091352Z 35022G34KT 6000 2000SE BKN012 OVC050 27/26 Q0998=
---------- ADS -----------

Post Reply

Return to “General Airline Industry Comments”